createdAt,value
2022-08-07T00:02:40.398Z,9.30
2022-08-07T00:05:00.020Z,4.75
2022-08-07T00:07:27.569Z,7.78
2022-08-07T00:10:26.642Z,7.25
2022-08-07T00:13:00.707Z,8.50
2022-08-07T00:15:37.663Z,8.43
2022-08-07T00:18:19.464Z,5.07
2022-08-07T00:20:49.544Z,8.68
2022-08-07T00:23:17.216Z,3.83
2022-08-07T00:25:52.559Z,6.15
2022-08-07T00:28:31.562Z,6.93
2022-08-07T00:31:06.070Z,7.78
2022-08-07T00:33:34.158Z,7.22
2022-08-07T00:36:01.212Z,6.43
2022-08-07T00:38:31.552Z,11.00
2022-08-07T00:40:59.928Z,10.60
2022-08-07T00:43:59.538Z,6.05
2022-08-07T00:46:14.554Z,6.80
2022-08-07T00:48:42.304Z,10.57
2022-08-07T00:51:10.581Z,10.68
2022-08-07T00:53:39.191Z,8.80
2022-08-07T00:56:17.487Z,6.68
2022-08-07T00:58:46.697Z,8.27
2022-08-07T01:01:16.090Z,6.45
2022-08-07T01:03:56.438Z,6.53
2022-08-07T01:06:27.686Z,11.35
2022-08-07T01:08:56.284Z,8.38
2022-08-07T01:12:23.335Z,5.25
2022-08-07T01:14:28.517Z,8.65
2022-08-07T01:16:56.533Z,5.00
2022-08-07T01:19:24.949Z,5.97
2022-08-07T01:21:53.504Z,5.88
2022-08-07T01:24:23.474Z,8.57
2022-08-07T01:26:52.473Z,9.35
2022-08-07T01:29:27.771Z,5.30
2022-08-07T01:31:59.392Z,6.78
2022-08-07T01:34:30.771Z,5.65
2022-08-07T01:36:58.818Z,6.90
2022-08-07T01:39:40.664Z,11.05
2022-08-07T01:42:38.812Z,9.98
2022-08-07T01:45:04.169Z,12.05
2022-08-07T01:48:19.445Z,11.95
2022-08-07T01:50:22.749Z,7.60
2022-08-07T01:52:58.403Z,6.10
2022-08-07T01:55:39.687Z,10.32
2022-08-07T01:58:27.265Z,6.00
2022-08-07T02:01:25.400Z,6.25
2022-08-07T02:04:10.359Z,7.85
2022-08-07T02:06:39.956Z,7.75
2022-08-07T02:09:11.668Z,8.00
2022-08-07T02:12:04.617Z,7.65
2022-08-07T02:14:36.245Z,8.60
2022-08-07T02:17:10.945Z,7.65
2022-08-07T02:20:05.339Z,4.68
2022-08-07T02:22:30.497Z,9.70
2022-08-07T02:24:59.196Z,4.40
2022-08-07T02:27:34.447Z,8.38
2022-08-07T02:30:07.014Z,13.68
2022-08-07T02:33:00.743Z,9.50
2022-08-07T02:36:29.500Z,6.60
2022-08-07T02:38:16.896Z,11.25
2022-08-07T02:40:55.305Z,5.10
2022-08-07T02:43:23.928Z,13.57
2022-08-07T02:46:00.803Z,10.27
2022-08-07T02:48:30.803Z,5.05
2022-08-07T02:51:02.472Z,5.85
2022-08-07T02:53:38.340Z,7.13
2022-08-07T02:58:47.176Z,8.20
2022-08-07T03:01:19.194Z,6.80
2022-08-07T03:04:07.177Z,6.20
2022-08-07T03:06:37.531Z,6.10
2022-08-07T03:09:07.825Z,7.13
2022-08-07T03:11:52.529Z,8.80
2022-08-07T03:14:26.361Z,8.93
2022-08-07T03:16:56.648Z,8.77
2022-08-07T03:19:24.861Z,6.30
2022-08-07T03:21:56.958Z,8.18
2022-08-07T03:24:27.251Z,7.47
2022-08-07T03:27:00.490Z,11.43
2022-08-07T03:29:37.659Z,10.13
2022-08-07T03:32:13.065Z,7.90
2022-08-07T03:34:47.179Z,10.30
2022-08-07T03:37:29.571Z,7.05
2022-08-07T03:40:15.768Z,10.57
2022-08-07T03:42:44.225Z,12.48
2022-08-07T03:45:12.121Z,5.90
2022-08-07T03:47:57.684Z,8.57
2022-08-07T03:50:25.538Z,7.25
2022-08-07T03:52:59.428Z,5.13
2022-08-07T03:55:42.779Z,6.32
2022-08-07T03:59:07.239Z,4.68
2022-08-07T04:01:07.406Z,8.05
2022-08-07T04:03:38.852Z,7.57
2022-08-07T04:06:37.082Z,7.78
2022-08-07T04:09:06.124Z,9.48
2022-08-07T04:12:27.547Z,3.10
2022-08-07T04:14:38.064Z,7.97
2022-08-07T04:17:20.051Z,6.63
2022-08-07T04:19:52.239Z,5.28
2022-08-07T04:22:27.588Z,11.75
2022-08-07T04:24:58.104Z,7.38
2022-08-07T04:27:26.448Z,7.22
2022-08-07T04:30:01.260Z,6.28
2022-08-07T04:32:34.521Z,8.05
2022-08-07T04:35:11.420Z,9.05
2022-08-07T04:37:52.852Z,6.80
2022-08-07T04:40:26.776Z,4.93
2022-08-07T04:43:02.111Z,5.75
2022-08-07T04:46:00.536Z,4.78
2022-08-07T04:48:59.575Z,6.88
2022-08-07T04:51:45.133Z,4.40
2022-08-07T04:54:34.368Z,4.65
2022-08-07T04:58:10.445Z,9.18
2022-08-07T05:00:24.016Z,8.55
2022-08-07T05:03:31.089Z,7.78
2022-08-07T05:06:20.413Z,5.90
2022-08-07T05:09:45.954Z,5.10
2022-08-07T05:12:27.102Z,7.13
2022-08-07T05:15:04.560Z,8.30
2022-08-07T05:17:52.839Z,6.13
2022-08-07T05:20:27.087Z,8.30
2022-08-07T05:22:59.638Z,6.43
2022-08-07T05:25:37.376Z,9.82
2022-08-07T05:28:22.543Z,6.05
2022-08-07T05:30:52.645Z,7.47
2022-08-07T05:33:21.861Z,5.45
2022-08-07T05:35:51.942Z,6.82
2022-08-07T05:38:59.413Z,6.60
2022-08-07T05:41:16.606Z,7.85
2022-08-07T05:44:12.118Z,4.72
2022-08-07T05:46:38.920Z,6.28
2022-08-07T05:49:12.223Z,3.28
2022-08-07T05:51:42.326Z,6.47
2022-08-07T05:54:29.319Z,6.75
2022-08-07T05:56:59.195Z,6.85
2022-08-07T05:59:28.005Z,4.63
2022-08-07T06:01:57.466Z,8.02
2022-08-07T06:04:30.257Z,4.63
2022-08-07T06:07:03.978Z,5.68
2022-08-07T06:10:04.245Z,4.72
2022-08-07T06:12:27.822Z,3.83
2022-08-07T06:15:05.563Z,5.82
2022-08-07T06:17:37.549Z,4.63
2022-08-07T06:20:12.445Z,3.75
2022-08-07T06:23:01.906Z,4.90
2022-08-07T06:25:34.735Z,5.72
2022-08-07T06:28:06.366Z,3.55
2022-08-07T06:30:37.956Z,3.05
2022-08-07T06:33:16.309Z,5.25
2022-08-07T06:35:47.871Z,2.05
2022-08-07T06:38:31.887Z,4.18
2022-08-07T06:41:01.419Z,4.40
2022-08-07T06:43:39.949Z,3.92
2022-08-07T06:46:15.809Z,3.05
2022-08-07T06:48:58.415Z,3.15
2022-08-07T06:51:33.481Z,4.93
2022-08-07T06:55:30.121Z,4.35
2022-08-07T06:56:55.552Z,4.47
2022-08-07T07:00:12.146Z,7.10
2022-08-07T07:02:48.161Z,4.53
2022-08-07T07:05:14.345Z,3.55
2022-08-07T07:08:07.167Z,6.15
2022-08-07T07:10:37.759Z,9.73
2022-08-07T07:13:14.504Z,4.38
2022-08-07T07:15:53.683Z,5.18
2022-08-07T07:18:47.287Z,4.85
2022-08-07T07:21:19.355Z,5.22
2022-08-07T07:24:10.219Z,5.63
2022-08-07T07:26:37.773Z,3.53
2022-08-07T07:29:28.592Z,3.50
2022-08-07T07:32:03.625Z,3.88
2022-08-07T07:34:33.076Z,3.53
2022-08-07T07:37:14.364Z,5.07
2022-08-07T07:39:54.246Z,4.90
2022-08-07T07:42:32.902Z,4.35
2022-08-07T07:45:02.854Z,3.25
2022-08-07T07:47:51.827Z,6.25
2022-08-07T07:50:34.815Z,2.40
2022-08-07T07:53:20.747Z,2.95
2022-08-07T07:55:57.691Z,8.18
2022-08-07T07:58:40.238Z,5.38
2022-08-07T08:02:02.263Z,7.28
2022-08-07T08:04:09.797Z,3.85
2022-08-07T08:06:50.855Z,2.67
2022-08-07T08:09:22.713Z,2.80
2022-08-07T08:12:02.157Z,3.10
2022-08-07T08:14:44.192Z,2.58
2022-08-07T08:17:56.305Z,1.67
2022-08-07T08:20:19.264Z,1.38
2022-08-07T08:23:14.545Z,3.03
2022-08-07T08:26:07.055Z,2.10
2022-08-07T08:28:44.812Z,3.65
2022-08-07T08:31:18.302Z,4.32
2022-08-07T08:34:01.156Z,4.03
2022-08-07T08:36:39.637Z,2.72
2022-08-07T08:39:15.309Z,1.88
2022-08-07T08:42:03.405Z,3.85
2022-08-07T08:44:44.604Z,3.22
2022-08-07T08:47:31.708Z,2.40
2022-08-07T08:50:44.561Z,4.75
2022-08-07T08:53:30.813Z,2.67
2022-08-07T08:56:03.287Z,4.37
2022-08-07T08:58:54.554Z,2.95
2022-08-07T09:01:49.493Z,2.47
2022-08-07T09:04:16.781Z,3.28
2022-08-07T09:07:03.598Z,4.63
2022-08-07T09:09:56.826Z,1.58
2022-08-07T09:12:54.345Z,3.78
2022-08-07T09:16:25.229Z,2.75
2022-08-07T09:19:51.798Z,3.60
2022-08-07T09:24:27.181Z,2.45
2022-08-07T09:25:38.270Z,2.78
2022-08-07T09:30:04.092Z,3.05
2022-08-07T09:31:24.762Z,1.95
2022-08-07T09:34:16.794Z,2.08
2022-08-07T09:37:01.117Z,2.47
2022-08-07T09:39:53.610Z,1.73
2022-08-07T09:42:59.048Z,2.60
2022-08-07T09:47:24.646Z,2.15
2022-08-07T09:48:56.074Z,2.28
2022-08-07T09:52:16.212Z,6.70
2022-08-07T09:54:46.838Z,4.18
2022-08-07T09:57:22.184Z,2.63
2022-08-07T10:00:05.703Z,2.97
2022-08-07T10:03:08.454Z,3.05
2022-08-07T10:06:12.021Z,2.35
2022-08-07T10:09:00.643Z,4.35
2022-08-07T10:12:01.661Z,5.53
2022-08-07T10:15:00.773Z,1.80
2022-08-07T10:18:01.735Z,3.38
2022-08-07T10:20:45.477Z,3.03
2022-08-07T10:24:04.875Z,2.13
2022-08-07T10:26:52.940Z,2.53
2022-08-07T10:29:59.601Z,2.88
2022-08-07T10:32:59.686Z,1.42
2022-08-07T10:36:14.843Z,4.07
2022-08-07T10:41:47.325Z,2.13
2022-08-07T10:44:38.231Z,0.95
2022-08-07T10:49:51.042Z,1.80
2022-08-07T10:52:40.167Z,2.60
2022-08-07T10:55:26.981Z,2.17
2022-08-07T10:58:59.370Z,2.05
2022-08-07T11:02:27.213Z,1.95
2022-08-07T11:05:13.784Z,1.42
2022-08-07T11:08:02.721Z,3.50
2022-08-07T11:10:39.507Z,3.42
2022-08-07T11:14:44.045Z,3.85
2022-08-07T11:16:40.984Z,2.03
2022-08-07T11:19:27.436Z,4.18
2022-08-07T11:22:27.394Z,2.95
2022-08-07T11:25:23.204Z,6.18
2022-08-07T11:28:15.456Z,4.45
2022-08-07T11:30:53.408Z,3.35
2022-08-07T11:33:59.547Z,4.45
2022-08-07T11:36:50.589Z,4.75
2022-08-07T11:39:58.853Z,3.00
2022-08-07T11:42:29.705Z,4.07
2022-08-07T11:45:23.596Z,4.75
2022-08-07T11:48:30.421Z,3.97
2022-08-07T11:51:41.532Z,3.45
2022-08-07T11:54:18.060Z,6.97
2022-08-07T11:56:55.319Z,2.35
2022-08-07T12:00:10.082Z,3.15
2022-08-07T12:03:06.149Z,4.10
2022-08-07T12:06:39.009Z,3.22
2022-08-07T12:09:16.700Z,4.25
2022-08-07T12:12:09.484Z,4.45
2022-08-07T12:15:35.872Z,8.27
2022-08-07T12:18:22.111Z,5.88
2022-08-07T12:21:55.758Z,2.67
2022-08-07T12:24:37.614Z,2.38
2022-08-07T12:27:15.962Z,3.35
2022-08-07T12:29:42.954Z,3.00
2022-08-07T12:32:31.198Z,6.55
2022-08-07T12:35:00.973Z,2.47
2022-08-07T12:38:09.721Z,2.42
2022-08-07T12:40:47.962Z,2.25
2022-08-07T12:44:03.092Z,11.10
2022-08-07T12:46:26.356Z,1.92
2022-08-07T12:49:48.733Z,3.15
2022-08-07T12:52:35.704Z,2.97
2022-08-07T12:56:03.603Z,2.63
2022-08-07T12:58:35.483Z,1.70
2022-08-07T13:01:32.497Z,1.50
2022-08-07T13:04:49.084Z,5.38
2022-08-07T13:08:12.284Z,5.32
2022-08-07T13:10:51.677Z,2.67
2022-08-07T13:13:47.425Z,4.57
2022-08-07T13:16:50.978Z,1.85
2022-08-07T13:19:55.945Z,2.17
2022-08-07T13:22:42.181Z,2.80
2022-08-07T13:25:29.629Z,1.65
2022-08-07T13:28:13.809Z,10.68
2022-08-07T13:30:49.098Z,5.93
2022-08-07T13:34:31.026Z,6.22
2022-08-07T13:36:39.689Z,1.83
2022-08-07T13:39:12.939Z,5.97
2022-08-07T13:41:57.359Z,6.43
2022-08-07T13:44:34.221Z,3.45
2022-08-07T13:47:09.222Z,3.38
2022-08-07T13:50:32.659Z,3.30
2022-08-07T13:52:38.158Z,3.67
2022-08-07T13:55:19.700Z,3.15
2022-08-07T13:58:27.841Z,3.15
2022-08-07T14:01:13.932Z,5.05
2022-08-07T14:04:05.257Z,2.58
2022-08-07T14:06:35.988Z,1.85
2022-08-07T14:09:07.796Z,3.33
2022-08-07T14:11:53.733Z,3.25
2022-08-07T14:14:48.873Z,3.20
2022-08-07T14:18:12.501Z,4.55
2022-08-07T14:20:40.866Z,6.88
2022-08-07T14:23:31.505Z,4.30
2022-08-07T14:26:30.489Z,6.13
2022-08-07T14:29:06.048Z,2.42
2022-08-07T14:31:43.459Z,2.53
2022-08-07T14:34:30.617Z,4.80
2022-08-07T14:37:03.113Z,4.72
2022-08-07T14:40:16.922Z,3.40
2022-08-07T14:42:31.309Z,2.95
2022-08-07T14:47:52.998Z,4.57
2022-08-07T14:50:28.157Z,8.45
2022-08-07T14:52:56.803Z,2.72
2022-08-07T14:58:30.060Z,2.50
2022-08-07T15:03:52.421Z,5.80
2022-08-07T15:06:25.778Z,3.70
2022-08-07T15:08:55.919Z,3.85
2022-08-07T15:14:25.501Z,9.27
2022-08-07T15:17:01.946Z,5.00
2022-08-07T15:20:30.702Z,3.50
2022-08-07T15:22:33.299Z,2.92
2022-08-07T15:25:17.892Z,3.03
2022-08-07T15:31:05.296Z,3.78
2022-08-07T15:36:14.544Z,3.83
2022-08-07T15:39:06.050Z,2.47
2022-08-07T15:42:44.981Z,5.68
2022-08-07T15:44:52.118Z,6.55
2022-08-07T15:50:37.866Z,7.82
2022-08-07T15:53:25.583Z,4.78
2022-08-07T15:56:14.137Z,5.88
2022-08-07T15:58:52.492Z,6.68
2022-08-07T16:01:38.609Z,8.70
2022-08-07T16:04:14.689Z,6.68
2022-08-07T16:06:52.808Z,6.32
2022-08-07T16:09:42.251Z,11.30
2022-08-07T16:13:01.184Z,8.70
2022-08-07T16:16:47.768Z,4.95
2022-08-07T16:19:09.615Z,4.65
2022-08-07T16:22:05.596Z,8.75
2022-08-07T16:24:53.071Z,7.57
2022-08-07T16:27:59.537Z,9.93
2022-08-07T16:30:32.562Z,14.27
2022-08-07T16:34:03.256Z,18.65
2022-08-07T16:36:19.714Z,18.80
2022-08-07T16:39:06.479Z,16.63
2022-08-07T16:42:01.631Z,12.43
2022-08-07T16:45:15.577Z,8.90
2022-08-07T16:47:55.981Z,13.73
2022-08-07T16:51:20.499Z,9.27
2022-08-07T16:58:00.672Z,6.20
2022-08-07T17:00:30.071Z,6.53
2022-08-07T17:03:06.003Z,3.42
2022-08-07T17:06:31.049Z,5.67
2022-08-07T17:09:14.312Z,5.05
2022-08-07T17:12:04.038Z,5.05
2022-08-07T17:15:16.394Z,5.22
2022-08-07T17:17:47.339Z,3.25
2022-08-07T17:20:31.828Z,5.28
2022-08-07T17:23:31.849Z,5.80
2022-08-07T17:26:24.192Z,3.25
2022-08-07T17:28:58.414Z,5.40
2022-08-07T17:32:03.351Z,3.53
2022-08-07T17:35:33.191Z,3.55
2022-08-07T17:38:05.870Z,6.18
2022-08-07T17:40:50.615Z,11.15
2022-08-07T17:44:03.221Z,15.20
2022-08-07T17:46:43.666Z,16.98
2022-08-07T17:49:23.820Z,14.82
2022-08-07T17:52:19.618Z,11.30
2022-08-07T17:54:55.325Z,13.30
2022-08-07T17:57:56.585Z,14.25
2022-08-07T18:00:34.632Z,11.82
2022-08-07T18:04:03.753Z,11.27
2022-08-07T18:06:37.104Z,9.93
2022-08-07T18:09:08.670Z,14.27
2022-08-07T18:12:16.866Z,15.48
2022-08-07T18:14:58.619Z,18.27
2022-08-07T18:18:47.599Z,15.57
2022-08-07T18:21:09.697Z,14.55
2022-08-07T18:23:59.562Z,9.98
2022-08-07T18:26:53.106Z,12.35
2022-08-07T18:30:05.978Z,6.88
2022-08-07T18:33:12.182Z,9.60
2022-08-07T18:35:57.890Z,6.90
2022-08-07T18:38:56.384Z,12.63
2022-08-07T18:41:44.729Z,8.82
2022-08-07T18:45:40.142Z,8.25
2022-08-07T18:48:04.370Z,8.98
2022-08-07T18:50:47.788Z,10.80
2022-08-07T18:53:44.263Z,9.57
2022-08-07T18:56:31.860Z,6.47
2022-08-07T18:59:47.960Z,13.32
2022-08-07T19:02:42.317Z,11.75
2022-08-07T19:06:02.017Z,8.23
2022-08-07T19:09:00.632Z,11.52
2022-08-07T19:11:37.461Z,8.48
2022-08-07T19:14:26.316Z,15.45
2022-08-07T19:17:06.845Z,9.88
2022-08-07T19:20:05.458Z,9.77
2022-08-07T19:22:45.121Z,9.10
2022-08-07T19:26:23.300Z,4.40
2022-08-07T19:28:56.401Z,5.90
2022-08-07T19:31:41.948Z,8.00
2022-08-07T19:34:03.147Z,6.07
2022-08-07T19:36:44.356Z,4.93
2022-08-07T19:39:27.913Z,9.15
2022-08-07T19:42:24.873Z,6.25
2022-08-07T19:44:55.761Z,9.43
2022-08-07T19:47:36.556Z,6.45
2022-08-07T19:50:43.688Z,4.75
2022-08-07T19:52:58.522Z,10.75
2022-08-07T19:55:56.704Z,5.03
2022-08-07T19:58:28.020Z,10.35
2022-08-07T20:00:57.970Z,4.82
2022-08-07T20:03:34.977Z,5.88
2022-08-07T20:06:15.243Z,6.10
2022-08-07T20:08:58.441Z,8.00
2022-08-07T20:12:00.913Z,5.25
2022-08-07T20:14:31.358Z,5.30
2022-08-07T20:17:04.181Z,7.93
2022-08-07T20:19:48.203Z,6.88
2022-08-07T20:22:29.159Z,5.75
2022-08-07T20:25:12.759Z,5.03
2022-08-07T20:27:57.869Z,6.00
2022-08-07T20:30:35.126Z,5.07
2022-08-07T20:33:04.903Z,10.25
2022-08-07T20:35:54.378Z,9.02
2022-08-07T20:38:32.374Z,8.13
2022-08-07T20:41:03.861Z,9.23
2022-08-07T20:43:34.062Z,10.70
2022-08-07T20:46:25.958Z,9.75
2022-08-07T20:49:54.419Z,8.88
2022-08-07T20:51:50.707Z,9.32
2022-08-07T20:54:30.073Z,6.63
2022-08-07T20:57:03.291Z,5.30
2022-08-07T21:00:07.543Z,9.73
2022-08-07T21:02:53.277Z,4.80
2022-08-07T21:05:42.890Z,6.18
2022-08-07T21:08:37.756Z,8.93
2022-08-07T21:11:16.893Z,9.95
2022-08-07T21:14:33.642Z,9.73
2022-08-07T21:18:01.176Z,8.10
2022-08-07T21:19:51.659Z,6.63
2022-08-07T21:22:30.650Z,9.27
2022-08-07T21:25:12.718Z,4.05
2022-08-07T21:27:47.051Z,10.07
2022-08-07T21:30:17.586Z,7.63
2022-08-07T21:33:06.071Z,7.57
2022-08-07T21:36:05.553Z,4.65
2022-08-07T21:38:49.967Z,6.15
2022-08-07T21:41:38.347Z,5.03
2022-08-07T21:44:53.136Z,7.07
2022-08-07T21:47:34.752Z,6.68
2022-08-07T21:50:14.412Z,6.82
2022-08-07T21:52:58.145Z,11.77
2022-08-07T21:55:31.192Z,6.10
2022-08-07T21:58:46.120Z,11.43
2022-08-07T22:01:42.259Z,7.00
2022-08-07T22:04:21.857Z,10.10
2022-08-07T22:07:03.568Z,11.60
2022-08-07T22:09:54.091Z,6.18
2022-08-07T22:12:31.726Z,11.57
2022-08-07T22:16:44.358Z,8.52
2022-08-07T22:18:20.558Z,9.30
2022-08-07T22:22:05.368Z,11.32
2022-08-07T22:24:32.637Z,13.63
2022-08-07T22:29:48.204Z,10.45
2022-08-07T22:32:42.285Z,10.18
2022-08-07T22:35:11.928Z,13.80
2022-08-07T22:38:03.029Z,14.02
2022-08-07T22:41:02.953Z,7.55
2022-08-07T22:43:48.298Z,15.25
2022-08-07T22:47:03.688Z,8.60
2022-08-07T22:49:33.930Z,5.90
2022-08-07T22:52:43.376Z,8.27
2022-08-07T22:55:37.530Z,6.18
2022-08-07T22:58:28.012Z,4.90
2022-08-07T23:01:42.120Z,11.70
2022-08-07T23:04:57.651Z,8.85
2022-08-07T23:08:07.234Z,8.88
2022-08-07T23:11:01.799Z,9.45
2022-08-07T23:14:15.662Z,7.38
2022-08-07T23:17:21.408Z,11.15
2022-08-07T23:20:51.581Z,7.72
2022-08-07T23:24:05.966Z,9.90
2022-08-07T23:26:16.018Z,9.40
2022-08-07T23:28:56.471Z,9.10
2022-08-07T23:32:49.238Z,7.72
2022-08-07T23:35:02.345Z,9.85
2022-08-07T23:38:01.472Z,10.35
2022-08-07T23:41:08.495Z,11.52
2022-08-07T23:43:57.780Z,11.18
2022-08-07T23:47:18.842Z,10.98
2022-08-07T23:50:11.905Z,12.07
2022-08-07T23:53:05.980Z,11.82
2022-08-07T23:55:55.748Z,7.72
